Terminal Aerodrome Forecast
Issued by NWS

Home | Current Version | Previous Version | Graphics & Text | Print | Product List | Glossary On
Versions: 1 2 3 4 5 6 7 8 9 10 11 12 13 14 15 16 17 18 19 20 21 22 23 24 25 26 27 28
000
FTUS43 KBIS 241130
TAFMOT
TAF
KMOT 241130Z 2412/2512 07006KT 1/2SM FG OVC002
     FM241500 10008KT 3SM BR BKN003
     FM241700 12010KT P6SM BKN015
     FM242100 18009KT P6SM BKN040
     FM250200 28009KT P6SM BKN025
     FM250500 32017G23KT P6SM -SHRA OVC008
     FM251100 31021G29KT P6SM -SHRA OVC025=

USA.gov is the U.S. government's official web portal to all federal, state and local government web resources and services.